createdAt,value
2022-11-27T00:04:59.288Z,102496.41
2022-11-27T00:10:02.283Z,102482.22
2022-11-27T00:15:07.244Z,102472.19
2022-11-27T00:20:10.795Z,102459.81
2022-11-27T00:25:13.776Z,102447.25
2022-11-27T00:30:18.835Z,102449.19
2022-11-27T00:35:22.018Z,102452.63
2022-11-27T00:40:25.009Z,102445.44
2022-11-27T00:45:30.222Z,102447.25
2022-11-27T00:50:33.307Z,102446.75
2022-11-27T00:55:36.215Z,102430.53
2022-11-27T01:00:40.643Z,102420.84
2022-11-27T01:05:43.667Z,102409.63
2022-11-27T01:10:54.676Z,102413.25
2022-11-27T01:16:05.045Z,102416.66
2022-11-27T01:21:08.715Z,102411.19
2022-11-27T01:26:13.153Z,102384.16
2022-11-27T01:31:19.730Z,102382.72
2022-11-27T01:36:23.300Z,102390.00
2022-11-27T01:41:28.671Z,102389.34
2022-11-27T01:46:48.990Z,102369.13
2022-11-27T01:51:55.935Z,102360.91
2022-11-27T01:57:02.805Z,102340.13
2022-11-27T02:02:07.731Z,102314.41
2022-11-27T02:07:11.002Z,102310.53
2022-11-27T02:12:25.287Z,102319.38
2022-11-27T02:17:37.298Z,102311.56
2022-11-27T02:22:57.552Z,102305.44
2022-11-27T02:28:22.772Z,102309.53
2022-11-27T02:33:28.148Z,102304.59
2022-11-27T02:38:36.743Z,102303.69
2022-11-27T02:43:43.678Z,102301.69
2022-11-27T02:48:50.859Z,102316.91
2022-11-27T02:54:00.001Z,102312.88
2022-11-27T02:59:07.757Z,102308.25
2022-11-27T03:04:15.833Z,102305.84
2022-11-27T03:09:23.506Z,102300.09
2022-11-27T03:14:27.585Z,102303.88
2022-11-27T03:19:44.621Z,102298.06
2022-11-27T03:24:49.947Z,102284.25
2022-11-27T03:29:57.789Z,102266.97
2022-11-27T03:35:03.664Z,102264.50
2022-11-27T03:40:08.833Z,102270.50
2022-11-27T03:45:24.062Z,102286.59
2022-11-27T03:50:38.686Z,102279.31
2022-11-27T03:55:51.238Z,102288.88
2022-11-27T04:00:55.851Z,102290.00
2022-11-27T04:06:00.640Z,102288.31
2022-11-27T04:11:03.715Z,102290.00
2022-11-27T04:16:07.749Z,102282.06
2022-11-27T04:21:12.766Z,102273.78
2022-11-27T04:26:15.675Z,102280.94
2022-11-27T04:31:18.894Z,102271.28
2022-11-27T04:36:23.568Z,102267.66
2022-11-27T04:41:26.579Z,102267.56
2022-11-27T04:46:29.606Z,102261.75
2022-11-27T04:51:33.980Z,102260.41
2022-11-27T04:56:37.014Z,102255.31
2022-11-27T05:01:40.078Z,102246.34
2022-11-27T05:06:44.394Z,102233.25
2022-11-27T05:11:47.744Z,102231.91
2022-11-27T05:16:53.351Z,102219.97
2022-11-27T05:21:58.593Z,102218.91
2022-11-27T05:27:01.808Z,102211.63
2022-11-27T05:32:05.210Z,102211.63
2022-11-27T05:37:09.735Z,102208.47
2022-11-27T05:42:12.913Z,102203.25
2022-11-27T05:47:15.915Z,102194.38
2022-11-27T05:52:20.274Z,102194.50
2022-11-27T05:57:23.673Z,102185.00
2022-11-27T06:02:29.518Z,102188.66
2022-11-27T06:07:34.387Z,102187.59
2022-11-27T06:12:37.946Z,102181.47
2022-11-27T06:17:41.121Z,102180.59
2022-11-27T06:22:45.855Z,102185.81
2022-11-27T06:27:48.888Z,102177.16
2022-11-27T06:32:51.910Z,102169.34
2022-11-27T06:37:56.324Z,102161.41
2022-11-27T06:42:59.270Z,102149.00
2022-11-27T06:48:02.262Z,102139.47
2022-11-27T06:53:06.628Z,102142.09
2022-11-27T06:58:09.727Z,102123.91
2022-11-27T07:03:12.640Z,102125.63
2022-11-27T07:08:16.943Z,102116.09
2022-11-27T07:13:20.079Z,102104.75
2022-11-27T07:18:23.121Z,102098.78
2022-11-27T07:23:27.595Z,102087.28
2022-11-27T07:28:30.627Z,102089.25
2022-11-27T07:33:33.796Z,102088.44
2022-11-27T07:38:38.290Z,102074.59
2022-11-27T07:43:43.218Z,102072.09
2022-11-27T07:48:46.695Z,102065.31
2022-11-27T07:53:56.160Z,102069.03
2022-11-27T07:58:59.302Z,102070.97
2022-11-27T08:04:02.931Z,102057.91
2022-11-27T08:09:07.265Z,102068.81
2022-11-27T08:14:17.670Z,102060.97
2022-11-27T08:19:20.907Z,102063.13
2022-11-27T08:24:25.346Z,102061.44
2022-11-27T08:29:33.738Z,102070.28
2022-11-27T08:34:37.459Z,102067.66
2022-11-27T08:39:41.899Z,102065.97
2022-11-27T08:44:44.908Z,102061.97
2022-11-27T08:49:47.966Z,102060.63
2022-11-27T08:54:57.299Z,102063.44
2022-11-27T09:00:00.717Z,102061.88
2022-11-27T09:05:06.147Z,102067.09
2022-11-27T09:10:11.216Z,102061.28
2022-11-27T09:15:15.159Z,102058.19
2022-11-27T09:20:18.356Z,102048.88
2022-11-27T09:25:23.231Z,102040.47
2022-11-27T09:30:26.254Z,102040.66
2022-11-27T09:35:31.657Z,102037.50
2022-11-27T09:40:36.770Z,102037.28
2022-11-27T09:45:45.703Z,102026.94
2022-11-27T09:50:53.308Z,102026.56
2022-11-27T09:56:00.839Z,102019.75
2022-11-27T10:01:11.699Z,102014.50
2022-11-27T10:06:26.287Z,102007.03
2022-11-27T10:11:34.627Z,101998.78
2022-11-27T10:22:16.614Z,101987.78
2022-11-27T10:27:30.530Z,101987.78
2022-11-27T10:38:06.989Z,101980.88
2022-11-27T10:43:16.885Z,101966.13
2022-11-27T10:48:20.123Z,101963.00
2022-11-27T10:53:28.437Z,101945.13
2022-11-27T10:58:38.649Z,101940.28
2022-11-27T11:03:43.063Z,101937.56
2022-11-27T11:08:46.356Z,101930.53
2022-11-27T11:13:51.561Z,101916.06
2022-11-27T11:18:56.583Z,101906.88
2022-11-27T11:24:02.348Z,101896.19
2022-11-27T11:29:22.649Z,101895.75
2022-11-27T11:34:28.959Z,101888.09
2022-11-27T11:39:35.201Z,101882.94
2022-11-27T11:44:41.436Z,101874.66
2022-11-27T11:49:44.757Z,101861.13
2022-11-27T11:54:59.948Z,101832.69
2022-11-27T12:00:10.960Z,101827.38
2022-11-27T12:05:25.898Z,101825.59
2022-11-27T12:10:34.643Z,101809.88
2022-11-27T12:15:45.820Z,101807.34
2022-11-27T12:21:00.011Z,101796.50
2022-11-27T12:26:14.245Z,101790.19
2022-11-27T12:31:33.979Z,101772.19
2022-11-27T12:36:58.017Z,101758.38
2022-11-27T12:42:09.665Z,101749.88
2022-11-27T12:47:21.205Z,101753.94
2022-11-27T12:52:32.220Z,101746.03
2022-11-27T12:57:40.599Z,101734.63
2022-11-27T13:02:53.941Z,101733.78
2022-11-27T13:08:02.183Z,101730.13
2022-11-27T13:13:07.974Z,101717.66
2022-11-27T13:18:20.015Z,101722.50
2022-11-27T13:23:23.074Z,101716.63
2022-11-27T13:28:31.660Z,101720.88
2022-11-27T13:33:40.541Z,101711.22
2022-11-27T13:38:45.254Z,101698.06
2022-11-27T13:43:50.533Z,101689.03
2022-11-27T13:49:02.215Z,101678.78
2022-11-27T13:54:10.885Z,101673.81
2022-11-27T13:59:15.809Z,101670.91
2022-11-27T14:04:20.423Z,101661.88
2022-11-27T14:09:37.715Z,101648.44
2022-11-27T14:14:43.727Z,101644.94
2022-11-27T14:19:59.828Z,101633.56
2022-11-27T14:25:04.439Z,101631.75
2022-11-27T14:30:23.837Z,101621.09
2022-11-27T14:35:29.659Z,101621.03
2022-11-27T14:40:32.693Z,101609.47
2022-11-27T14:45:36.523Z,101615.16
2022-11-27T14:50:40.856Z,101599.25
2022-11-27T14:55:44.212Z,101589.53
2022-11-27T15:00:53.432Z,101597.06
2022-11-27T15:06:43.641Z,101581.19
2022-11-27T15:11:57.908Z,101571.38
2022-11-27T15:17:01.069Z,101567.13
2022-11-27T15:22:06.210Z,101561.72
2022-11-27T15:27:18.679Z,101564.13
2022-11-27T15:32:24.025Z,101537.41
2022-11-27T15:37:31.705Z,101536.84
2022-11-27T15:42:34.702Z,101544.97
2022-11-27T15:47:44.931Z,101537.31
2022-11-27T15:52:52.200Z,101532.09
2022-11-27T15:57:56.012Z,101526.84
2022-11-27T16:02:59.290Z,101526.25
2022-11-27T16:08:05.432Z,101516.50
2022-11-27T16:13:08.688Z,101521.19
2022-11-27T16:18:11.888Z,101506.31
2022-11-27T16:23:16.184Z,101502.59
2022-11-27T16:28:19.241Z,101493.22
2022-11-27T16:33:26.317Z,101488.00
2022-11-27T16:38:30.787Z,101482.59
2022-11-27T16:43:36.163Z,101475.72
2022-11-27T16:48:47.248Z,101476.56
2022-11-27T16:53:53.541Z,101474.75
2022-11-27T16:59:02.670Z,101466.09
2022-11-27T17:04:09.161Z,101454.44
2022-11-27T17:09:14.223Z,101448.69
2022-11-27T17:14:19.826Z,101455.91
2022-11-27T17:19:26.936Z,101444.97
2022-11-27T17:24:31.995Z,101431.53
2022-11-27T17:29:36.289Z,101433.16
2022-11-27T17:34:39.469Z,101419.13
2022-11-27T17:39:44.394Z,101405.69
2022-11-27T17:44:47.499Z,101410.13
2022-11-27T17:49:50.633Z,101397.84
2022-11-27T17:54:55.144Z,101395.34
2022-11-27T17:59:58.406Z,101391.91
2022-11-27T18:05:01.519Z,101382.81
2022-11-27T18:10:08.413Z,101376.56
2022-11-27T18:15:12.647Z,101367.75
2022-11-27T18:20:15.883Z,101358.03
2022-11-27T18:25:20.350Z,101352.63
2022-11-27T18:30:23.317Z,101351.72
2022-11-27T18:35:26.359Z,101342.91
2022-11-27T18:40:35.637Z,101337.47
2022-11-27T18:45:38.863Z,101324.16
2022-11-27T18:50:42.044Z,101321.44
2022-11-27T18:55:51.520Z,101331.16
2022-11-27T19:00:59.865Z,101318.13
2022-11-27T19:06:04.543Z,101319.81
2022-11-27T19:11:10.854Z,101317.22
2022-11-27T19:16:16.766Z,101310.09
2022-11-27T19:21:21.692Z,101298.84
2022-11-27T19:26:31.547Z,101288.22
2022-11-27T19:31:36.901Z,101283.91
2022-11-27T19:36:40.536Z,101276.78
2022-11-27T19:41:45.402Z,101259.31
2022-11-27T19:46:50.034Z,101262.03
2022-11-27T19:51:53.725Z,101248.88
2022-11-27T19:57:01.217Z,101247.97
2022-11-27T20:02:04.368Z,101240.13
2022-11-27T20:07:08.326Z,101214.94
2022-11-27T20:12:13.284Z,101213.22
2022-11-27T20:17:16.323Z,101200.78
2022-11-27T20:22:19.488Z,101190.25
2022-11-27T20:27:33.395Z,101177.13
2022-11-27T20:32:36.408Z,101178.91
2022-11-27T20:37:39.416Z,101174.34
2022-11-27T20:42:44.017Z,101182.25
2022-11-27T20:47:47.045Z,101170.91
2022-11-27T20:52:50.096Z,101163.97
2022-11-27T20:57:55.730Z,101163.91
2022-11-27T21:02:58.942Z,101154.19
2022-11-27T21:08:02.421Z,101147.41
2022-11-27T21:13:06.973Z,101140.41
2022-11-27T21:18:09.988Z,101139.75
2022-11-27T21:23:13.403Z,101123.28
2022-11-27T21:28:17.758Z,101109.41
2022-11-27T21:33:20.692Z,101105.09
2022-11-27T21:38:24.070Z,101103.38
2022-11-27T21:43:31.700Z,101106.97
2022-11-27T21:48:50.093Z,101102.66
2022-11-27T21:53:55.329Z,101096.53
2022-11-27T21:59:01.812Z,101077.38
2022-11-27T22:04:05.673Z,101073.28
2022-11-27T22:09:15.071Z,101064.72
2022-11-27T22:14:20.246Z,101051.69
2022-11-27T22:19:23.783Z,101059.56
2022-11-27T22:24:29.700Z,101047.25
2022-11-27T22:29:34.123Z,101035.16
2022-11-27T22:34:37.258Z,101040.41
2022-11-27T22:39:40.408Z,101042.31
2022-11-27T22:44:45.127Z,101030.97
2022-11-27T22:49:48.479Z,101031.75
2022-11-27T22:54:51.908Z,101016.31
2022-11-27T22:59:56.632Z,101023.47
2022-11-27T23:05:00.509Z,101015.75
2022-11-27T23:10:04.197Z,101006.47
2022-11-27T23:15:09.261Z,100998.81
2022-11-27T23:20:12.811Z,101011.03
2022-11-27T23:25:15.958Z,101008.53
2022-11-27T23:30:20.308Z,101000.75
2022-11-27T23:35:23.675Z,100993.09
2022-11-27T23:40:26.753Z,100980.94
2022-11-27T23:45:31.689Z,100987.94
2022-11-27T23:50:34.655Z,100983.78
2022-11-27T23:55:38.167Z,100976.84
